createdAt,value
2022-09-14T00:01:30.017Z,0
2022-09-14T00:01:56.259Z,0
2022-09-14T00:02:56.270Z,0
2022-09-14T00:03:55.629Z,0
2022-09-14T00:04:55.603Z,0
2022-09-14T00:05:55.611Z,0
2022-09-14T00:06:55.641Z,0
2022-09-14T00:07:55.642Z,0
2022-09-14T00:08:55.705Z,0
2022-09-14T00:09:55.631Z,0
2022-09-14T00:10:58.398Z,0
2022-09-14T00:11:55.629Z,0
2022-09-14T00:12:55.636Z,0
2022-09-14T00:13:55.885Z,0
2022-09-14T00:14:55.631Z,0
2022-09-14T00:15:58.492Z,0
2022-09-14T00:16:56.071Z,0
2022-09-14T00:17:55.648Z,0
2022-09-14T00:18:55.752Z,0
2022-09-14T00:19:55.634Z,0
2022-09-14T00:20:55.643Z,0
2022-09-14T00:21:58.659Z,0
2022-09-14T00:22:55.684Z,0
2022-09-14T00:23:55.652Z,0
2022-09-14T00:24:55.667Z,0
2022-09-14T00:25:55.648Z,0
2022-09-14T00:26:58.409Z,0
2022-09-14T00:27:55.674Z,0
2022-09-14T00:28:55.767Z,0
2022-09-14T00:29:55.697Z,0
2022-09-14T00:30:55.660Z,0
2022-09-14T00:31:56.085Z,0
2022-09-14T00:32:58.674Z,0
2022-09-14T00:33:55.679Z,0
2022-09-14T00:34:55.694Z,0
2022-09-14T00:35:55.662Z,0
2022-09-14T00:36:55.663Z,0
2022-09-14T00:37:58.947Z,0
2022-09-14T00:38:55.669Z,0
2022-09-14T00:39:55.880Z,0
2022-09-14T00:40:55.684Z,0
2022-09-14T00:41:55.692Z,0
2022-09-14T00:42:55.704Z,0
2022-09-14T00:43:58.719Z,0
2022-09-14T00:44:55.533Z,0
2022-09-14T00:45:56.037Z,0
2022-09-14T00:46:55.707Z,0
2022-09-14T00:47:55.689Z,0
2022-09-14T00:48:59.416Z,0
2022-09-14T00:49:55.734Z,0
2022-09-14T00:50:55.855Z,0
2022-09-14T00:51:55.833Z,0
2022-09-14T00:52:55.850Z,0
2022-09-14T00:53:55.792Z,0
2022-09-14T00:54:58.700Z,0
2022-09-14T00:55:55.698Z,0
2022-09-14T00:56:55.696Z,0
2022-09-14T00:57:57.004Z,0
2022-09-14T00:58:55.911Z,0
2022-09-14T00:59:58.770Z,0
2022-09-14T01:00:56.035Z,0
2022-09-14T01:01:56.082Z,0
2022-09-14T01:02:55.736Z,0
2022-09-14T01:03:55.740Z,0
2022-09-14T01:04:55.757Z,0
2022-09-14T01:05:58.863Z,0
2022-09-14T01:06:55.738Z,0
2022-09-14T01:07:55.724Z,0
2022-09-14T01:08:55.850Z,0
2022-09-14T01:09:55.753Z,0
2022-09-14T01:10:58.780Z,0
2022-09-14T01:11:58.556Z,0
2022-09-14T01:12:55.728Z,0
2022-09-14T01:13:55.754Z,0
2022-09-14T01:14:55.753Z,0
2022-09-14T01:15:55.744Z,0
2022-09-14T01:16:59.382Z,0
2022-09-14T01:17:55.744Z,0
2022-09-14T01:18:55.888Z,0
2022-09-14T01:19:55.782Z,0
2022-09-14T01:20:55.858Z,0
2022-09-14T01:21:58.944Z,0
2022-09-14T01:22:55.747Z,0
2022-09-14T01:23:55.910Z,0
2022-09-14T01:24:55.757Z,0
2022-09-14T01:25:55.779Z,0
2022-09-14T01:26:55.775Z,0
2022-09-14T01:27:55.757Z,0
2022-09-14T01:28:55.801Z,0
2022-09-14T01:29:55.771Z,0
2022-09-14T01:30:55.771Z,0
2022-09-14T01:31:56.137Z,0
2022-09-14T01:32:58.742Z,0
2022-09-14T01:33:55.866Z,0
2022-09-14T01:34:55.772Z,0
2022-09-14T01:35:55.795Z,0
2022-09-14T01:36:55.878Z,0
2022-09-14T01:37:55.906Z,0
2022-09-14T01:38:55.812Z,0
2022-09-14T01:39:56.010Z,0
2022-09-14T01:40:55.786Z,0
2022-09-14T01:41:55.816Z,0
2022-09-14T01:42:55.788Z,0
2022-09-14T01:43:55.803Z,0
2022-09-14T01:44:55.788Z,0
2022-09-14T01:45:56.258Z,0
2022-09-14T01:46:55.798Z,0
2022-09-14T01:47:55.798Z,0
2022-09-14T01:48:59.531Z,0
2022-09-14T01:49:55.807Z,0
2022-09-14T01:50:55.800Z,0
2022-09-14T01:51:55.805Z,0
2022-09-14T01:52:55.830Z,0
2022-09-14T01:53:56.027Z,0
2022-09-14T01:54:55.828Z,0
2022-09-14T01:55:55.812Z,0
2022-09-14T01:56:55.813Z,0
2022-09-14T01:57:55.839Z,0
2022-09-14T01:58:55.815Z,0
2022-09-14T01:59:58.951Z,0
2022-09-14T02:00:56.096Z,0
2022-09-14T02:01:58.410Z,0
2022-09-14T02:02:56.193Z,0
2022-09-14T02:03:56.079Z,0
2022-09-14T02:04:58.912Z,0
2022-09-14T02:05:55.822Z,0
2022-09-14T02:06:55.848Z,0
2022-09-14T02:07:55.830Z,0
2022-09-14T02:08:55.863Z,0
2022-09-14T02:09:55.867Z,0
2022-09-14T02:10:55.833Z,0
2022-09-14T02:11:55.834Z,0
2022-09-14T02:12:55.838Z,0
2022-09-14T02:13:55.911Z,0
2022-09-14T02:14:55.861Z,0
2022-09-14T02:15:59.208Z,0
2022-09-14T02:16:55.857Z,0
2022-09-14T02:17:55.852Z,0
2022-09-14T02:18:55.905Z,0
2022-09-14T02:19:55.863Z,0
2022-09-14T02:20:55.897Z,0
2022-09-14T02:21:55.860Z,0
2022-09-14T02:22:55.896Z,0
2022-09-14T02:23:55.869Z,0
2022-09-14T02:24:56.007Z,0
2022-09-14T02:25:55.906Z,0
2022-09-14T02:26:59.616Z,0
2022-09-14T02:27:55.878Z,0
2022-09-14T02:28:56.033Z,0
2022-09-14T02:29:56.041Z,0
2022-09-14T02:30:55.870Z,0
2022-09-14T02:31:56.310Z,0
2022-09-14T02:32:55.881Z,0
2022-09-14T02:33:56.017Z,0
2022-09-14T02:34:55.902Z,0
2022-09-14T02:35:55.899Z,0
2022-09-14T02:36:55.915Z,0
2022-09-14T02:37:58.824Z,0
2022-09-14T02:38:55.886Z,0
2022-09-14T02:39:56.090Z,0
2022-09-14T02:40:55.919Z,0
2022-09-14T02:41:55.911Z,0
2022-09-14T02:42:58.763Z,0
2022-09-14T02:43:55.959Z,0
2022-09-14T02:44:55.924Z,0
2022-09-14T02:45:55.938Z,0
2022-09-14T02:46:56.254Z,0
2022-09-14T02:47:55.902Z,0
2022-09-14T02:48:58.764Z,0
2022-09-14T02:49:55.950Z,0
2022-09-14T02:50:55.905Z,0
2022-09-14T02:51:55.928Z,0
2022-09-14T02:52:56.053Z,0
2022-09-14T02:53:58.987Z,0
2022-09-14T02:54:56.107Z,0
2022-09-14T02:55:56.008Z,0
2022-09-14T02:56:55.927Z,0
2022-09-14T02:57:56.095Z,0
2022-09-14T02:58:56.074Z,0
2022-09-14T02:59:58.724Z,0
2022-09-14T03:00:56.268Z,0
2022-09-14T03:01:56.223Z,0
2022-09-14T03:02:56.059Z,0
2022-09-14T03:03:56.084Z,0
2022-09-14T03:04:57.379Z,0
2022-09-14T03:05:56.026Z,0
2022-09-14T03:06:55.966Z,0
2022-09-14T03:07:55.959Z,0
2022-09-14T03:08:56.018Z,0
2022-09-14T03:09:55.959Z,0
2022-09-14T03:10:58.966Z,0
2022-09-14T03:11:55.947Z,0
2022-09-14T03:12:56.041Z,0
2022-09-14T03:13:55.974Z,0
2022-09-14T03:14:55.966Z,0
2022-09-14T03:15:59.152Z,0
2022-09-14T03:16:55.955Z,0
2022-09-14T03:17:56.223Z,0
2022-09-14T03:18:56.074Z,0
2022-09-14T03:19:55.974Z,0
2022-09-14T03:20:55.954Z,0
2022-09-14T03:21:59.073Z,0
2022-09-14T03:22:55.965Z,0
2022-09-14T03:23:56.131Z,0
2022-09-14T03:24:56.011Z,0
2022-09-14T03:25:55.971Z,0
2022-09-14T03:26:59.251Z,0
2022-09-14T03:27:56.110Z,0
2022-09-14T03:28:56.007Z,0
2022-09-14T03:29:56.034Z,0
2022-09-14T03:30:55.827Z,0
2022-09-14T03:31:56.299Z,0
2022-09-14T03:32:59.175Z,0
2022-09-14T03:33:56.248Z,0
2022-09-14T03:34:56.009Z,0
2022-09-14T03:35:56.065Z,0
2022-09-14T03:36:55.990Z,0
2022-09-14T03:37:59.069Z,0
2022-09-14T03:38:56.001Z,0
2022-09-14T03:39:56.265Z,0
2022-09-14T03:40:56.182Z,0
2022-09-14T03:41:56.010Z,0
2022-09-14T03:42:56.004Z,0
2022-09-14T03:43:58.926Z,0
2022-09-14T03:44:56.047Z,0
2022-09-14T03:45:56.112Z,0
2022-09-14T03:46:56.389Z,0
2022-09-14T03:47:56.013Z,0
2022-09-14T03:48:58.760Z,0
2022-09-14T03:49:56.046Z,0
2022-09-14T03:50:56.023Z,0
2022-09-14T03:52:01.775Z,0
2022-09-14T03:52:56.031Z,0
2022-09-14T03:53:56.294Z,0
2022-09-14T03:54:56.052Z,0
2022-09-14T03:55:56.043Z,0
2022-09-14T03:56:56.155Z,0
2022-09-14T03:57:56.026Z,0
2022-09-14T03:58:56.102Z,0
2022-09-14T03:59:59.192Z,0
2022-09-14T04:00:56.038Z,0
2022-09-14T04:01:56.492Z,0
2022-09-14T04:02:56.269Z,0
2022-09-14T04:03:56.044Z,0
2022-09-14T04:04:56.052Z,0
2022-09-14T04:05:56.065Z,0
2022-09-14T04:06:56.043Z,0
2022-09-14T04:07:56.032Z,0
2022-09-14T04:08:56.173Z,0
2022-09-14T04:09:56.062Z,0
2022-09-14T04:10:56.043Z,0
2022-09-14T04:11:56.061Z,0
2022-09-14T04:12:56.090Z,0
2022-09-14T04:13:56.208Z,0
2022-09-14T04:14:56.076Z,0
2022-09-14T04:15:59.445Z,0
2022-09-14T04:16:56.080Z,0
2022-09-14T04:17:56.103Z,0
2022-09-14T04:18:56.072Z,0
2022-09-14T04:19:56.079Z,0
2022-09-14T04:20:56.064Z,0
2022-09-14T04:21:56.227Z,0
2022-09-14T04:22:56.077Z,0
2022-09-14T04:24:33.224Z,0
2022-09-14T04:24:56.099Z,0
2022-09-14T04:25:56.078Z,0
2022-09-14T04:26:59.099Z,0
2022-09-14T04:28:24.845Z,0
2022-09-14T04:28:56.086Z,0
2022-09-14T04:29:56.117Z,0
2022-09-14T04:30:56.156Z,0
2022-09-14T04:31:59.232Z,0
2022-09-14T04:32:56.080Z,0
2022-09-14T04:33:56.451Z,0
2022-09-14T04:34:56.113Z,0
2022-09-14T04:35:56.100Z,0
2022-09-14T04:36:56.106Z,0
2022-09-14T04:37:56.123Z,0
2022-09-14T04:38:56.106Z,0
2022-09-14T04:39:56.441Z,0
2022-09-14T04:40:56.135Z,0
2022-09-14T04:41:56.105Z,0
2022-09-14T04:42:59.230Z,0
2022-09-14T04:43:56.134Z,0
2022-09-14T04:44:56.128Z,0
2022-09-14T04:45:56.114Z,0
2022-09-14T04:46:56.467Z,0
2022-09-14T04:47:56.419Z,0
2022-09-14T04:48:56.289Z,0
2022-09-14T04:49:56.165Z,0
2022-09-14T04:50:56.125Z,0
2022-09-14T04:51:56.124Z,0
2022-09-14T04:52:56.134Z,0
2022-09-14T04:53:59.072Z,0
2022-09-14T04:54:56.144Z,0
2022-09-14T04:55:56.134Z,0
2022-09-14T04:56:56.136Z,0
2022-09-14T04:57:56.123Z,4
2022-09-14T04:58:58.499Z,4
2022-09-14T04:59:56.184Z,0
2022-09-14T05:00:56.143Z,0
2022-09-14T05:01:56.411Z,0
2022-09-14T05:02:56.510Z,4
2022-09-14T05:03:56.364Z,4
2022-09-14T05:04:58.954Z,0
2022-09-14T05:05:56.242Z,0
2022-09-14T05:06:56.150Z,4
2022-09-14T05:07:56.188Z,4
2022-09-14T05:08:56.151Z,4
2022-09-14T05:09:56.320Z,4
2022-09-14T05:10:56.165Z,0
2022-09-14T05:11:56.170Z,4
2022-09-14T05:12:56.168Z,4
2022-09-14T05:13:57.265Z,4
2022-09-14T05:14:56.237Z,4
2022-09-14T05:15:59.351Z,4
2022-09-14T05:16:56.156Z,4
2022-09-14T05:17:56.166Z,8
2022-09-14T05:18:56.298Z,4
2022-09-14T05:19:56.281Z,4
2022-09-14T05:20:57.483Z,4
2022-09-14T05:21:56.189Z,8
2022-09-14T05:22:56.177Z,8
2022-09-14T05:23:56.174Z,8
2022-09-14T05:24:56.175Z,4
2022-09-14T05:25:56.290Z,4
2022-09-14T05:27:03.279Z,8
2022-09-14T05:27:56.181Z,8
2022-09-14T05:28:56.189Z,8
2022-09-14T05:29:56.188Z,8
2022-09-14T05:30:56.536Z,12
2022-09-14T05:31:58.995Z,12
2022-09-14T05:33:05.033Z,12
2022-09-14T05:33:56.205Z,12
2022-09-14T05:34:56.199Z,12
2022-09-14T05:35:56.348Z,12
2022-09-14T05:36:56.276Z,16
2022-09-14T05:37:59.165Z,12
2022-09-14T05:38:56.205Z,16
2022-09-14T05:39:56.478Z,16
2022-09-14T05:40:56.243Z,16
2022-09-14T05:41:56.259Z,16
2022-09-14T05:42:59.295Z,20
2022-09-14T05:43:56.230Z,16
2022-09-14T05:44:56.213Z,20
2022-09-14T05:45:56.461Z,20
2022-09-14T05:46:56.753Z,24
2022-09-14T05:47:56.262Z,28
2022-09-14T05:48:59.433Z,32
2022-09-14T05:49:56.237Z,36
2022-09-14T05:50:56.238Z,40
2022-09-14T05:51:56.263Z,36
2022-09-14T05:52:56.236Z,40
2022-09-14T05:53:59.046Z,36
2022-09-14T05:54:56.230Z,40
2022-09-14T05:55:56.247Z,36
2022-09-14T05:56:56.321Z,32
2022-09-14T05:57:56.259Z,32
2022-09-14T05:58:56.251Z,32
2022-09-14T05:59:59.613Z,28
2022-09-14T06:00:56.384Z,28
2022-09-14T06:01:56.658Z,24
2022-09-14T06:02:56.247Z,24
2022-09-14T06:03:56.561Z,24
2022-09-14T06:04:59.651Z,20
2022-09-14T06:05:56.267Z,20
2022-09-14T06:07:26.261Z,20
2022-09-14T06:07:56.271Z,20
2022-09-14T06:08:56.305Z,20
2022-09-14T06:09:56.285Z,20
2022-09-14T06:10:59.102Z,20
2022-09-14T06:11:56.270Z,20
2022-09-14T06:13:00.308Z,24
2022-09-14T06:13:56.691Z,20
2022-09-14T06:14:56.266Z,20
2022-09-14T06:15:57.229Z,20
2022-09-14T06:16:56.278Z,20
2022-09-14T06:17:56.271Z,20
2022-09-14T06:18:56.320Z,24
2022-09-14T06:19:57.611Z,28
2022-09-14T06:20:56.294Z,28
2022-09-14T06:21:56.279Z,32
2022-09-14T06:22:56.316Z,32
2022-09-14T06:23:56.295Z,36
2022-09-14T06:24:56.284Z,36
2022-09-14T06:25:56.483Z,36
2022-09-14T06:26:59.114Z,36
2022-09-14T06:27:56.291Z,36
2022-09-14T06:28:56.315Z,36
2022-09-14T06:29:56.407Z,36
2022-09-14T06:30:56.335Z,40
2022-09-14T06:31:56.312Z,40
2022-09-14T06:32:56.314Z,40
2022-09-14T06:33:56.397Z,40
2022-09-14T06:34:56.309Z,40
2022-09-14T06:35:56.344Z,40
2022-09-14T06:36:56.501Z,40
2022-09-14T06:37:56.310Z,40
2022-09-14T06:38:56.552Z,40
2022-09-14T06:39:56.652Z,40
2022-09-14T06:40:56.342Z,32
2022-09-14T06:41:56.385Z,32
2022-09-14T06:42:59.210Z,28
2022-09-14T06:43:56.325Z,32
2022-09-14T06:44:56.327Z,32
2022-09-14T06:45:56.525Z,36
2022-09-14T06:46:56.323Z,40
2022-09-14T06:47:56.364Z,40
2022-09-14T06:48:56.339Z,48
2022-09-14T06:49:56.332Z,48
2022-09-14T06:50:56.368Z,52
2022-09-14T06:51:56.450Z,52
2022-09-14T06:52:56.333Z,52
2022-09-14T06:53:59.453Z,48
2022-09-14T06:54:56.398Z,44
2022-09-14T06:55:56.353Z,44
2022-09-14T06:56:56.328Z,36
2022-09-14T06:57:56.444Z,36
2022-09-14T06:58:59.397Z,36
2022-09-14T06:59:56.350Z,40
2022-09-14T07:00:56.382Z,40
2022-09-14T07:01:56.370Z,44
2022-09-14T07:03:01.915Z,48
2022-09-14T07:03:56.357Z,48
2022-09-14T07:04:56.359Z,48
2022-09-14T07:05:56.380Z,48
2022-09-14T07:06:56.383Z,52
2022-09-14T07:07:56.381Z,48
2022-09-14T07:08:56.667Z,56
2022-09-14T07:09:59.706Z,60
2022-09-14T07:10:56.391Z,60
2022-09-14T07:11:56.361Z,60
2022-09-14T07:12:56.362Z,68
2022-09-14T07:13:56.522Z,80
2022-09-14T07:14:56.368Z,80
2022-09-14T07:15:56.380Z,72
2022-09-14T07:16:56.365Z,76
2022-09-14T07:17:56.401Z,72
2022-09-14T07:18:56.530Z,64
2022-09-14T07:19:56.389Z,72
2022-09-14T07:21:02.351Z,84
2022-09-14T07:21:56.392Z,96
2022-09-14T07:22:56.379Z,92
2022-09-14T07:23:56.447Z,92
2022-09-14T07:24:56.380Z,100
2022-09-14T07:25:56.445Z,108
2022-09-14T07:26:56.389Z,104
2022-09-14T07:27:56.399Z,112
2022-09-14T07:28:56.392Z,116
2022-09-14T07:29:56.508Z,108
2022-09-14T07:31:03.056Z,116
2022-09-14T07:31:59.486Z,116
2022-09-14T07:32:56.428Z,120
2022-09-14T07:33:56.776Z,116
2022-09-14T07:34:56.408Z,100
2022-09-14T07:35:56.416Z,80
2022-09-14T07:36:56.444Z,60
2022-09-14T07:37:56.423Z,48
2022-09-14T07:38:59.405Z,56
2022-09-14T07:39:56.760Z,68
2022-09-14T07:40:56.420Z,88
2022-09-14T07:41:56.449Z,96
2022-09-14T07:43:01.403Z,84
2022-09-14T07:43:56.434Z,72
2022-09-14T07:44:56.429Z,64
2022-09-14T07:45:56.823Z,64
2022-09-14T07:46:56.438Z,72
2022-09-14T07:47:59.292Z,60
2022-09-14T07:48:56.540Z,56
2022-09-14T07:49:56.453Z,56
2022-09-14T07:50:56.438Z,56
2022-09-14T07:51:56.445Z,56
2022-09-14T07:52:56.444Z,56
2022-09-14T07:53:59.250Z,64
2022-09-14T07:54:56.565Z,60
2022-09-14T07:55:56.534Z,60
2022-09-14T07:56:56.449Z,56
2022-09-14T07:58:03.545Z,52
2022-09-14T07:59:39.182Z,48
2022-09-14T07:59:56.450Z,52
2022-09-14T08:00:56.721Z,60
2022-09-14T08:01:57.281Z,72
2022-09-14T08:02:56.863Z,76
2022-09-14T08:03:56.499Z,76
2022-09-14T08:04:59.232Z,76
2022-09-14T08:05:56.484Z,84
2022-09-14T08:06:56.482Z,88
2022-09-14T08:07:56.471Z,100
2022-09-14T08:08:56.597Z,116
2022-09-14T08:09:59.511Z,128
2022-09-14T08:10:56.489Z,144
2022-09-14T08:11:56.506Z,152
2022-09-14T08:12:56.499Z,152
2022-09-14T08:13:56.803Z,144
2022-09-14T08:14:56.469Z,140
2022-09-14T08:15:59.374Z,144
2022-09-14T08:16:56.816Z,156
2022-09-14T08:17:56.516Z,168
2022-09-14T08:18:56.695Z,172
2022-09-14T08:19:56.485Z,156
2022-09-14T08:20:59.402Z,148
2022-09-14T08:21:56.496Z,148
2022-09-14T08:22:56.486Z,152
2022-09-14T08:23:56.498Z,156
2022-09-14T08:24:56.524Z,152
2022-09-14T08:25:56.516Z,156
2022-09-14T08:26:59.287Z,160
2022-09-14T08:27:56.501Z,156
2022-09-14T08:28:56.589Z,156
2022-09-14T08:29:56.530Z,172
2022-09-14T08:30:56.515Z,196
2022-09-14T08:32:00.143Z,212
2022-09-14T08:33:00.042Z,204
2022-09-14T08:33:56.646Z,192
2022-09-14T08:34:56.508Z,176
2022-09-14T08:36:05.199Z,144
2022-09-14T08:36:56.556Z,136
2022-09-14T08:37:59.524Z,116
2022-09-14T08:38:56.513Z,96
2022-09-14T08:39:58.772Z,96
2022-09-14T08:40:56.542Z,108
2022-09-14T08:41:56.560Z,108
2022-09-14T08:42:59.297Z,108
2022-09-14T08:43:56.615Z,104
2022-09-14T08:44:56.534Z,108
2022-09-14T08:45:57.018Z,104
2022-09-14T08:46:56.571Z,104
2022-09-14T08:47:56.845Z,100
2022-09-14T08:48:56.733Z,96
2022-09-14T08:49:56.581Z,104
2022-09-14T08:50:56.543Z,108
2022-09-14T08:51:56.565Z,116
2022-09-14T08:52:56.561Z,116
2022-09-14T08:53:59.760Z,108
2022-09-14T08:54:56.561Z,112
2022-09-14T08:55:56.567Z,120
2022-09-14T08:56:56.591Z,144
2022-09-14T08:57:56.581Z,164
2022-09-14T08:58:56.645Z,168
2022-09-14T08:59:56.597Z,160
2022-09-14T09:00:56.955Z,152
2022-09-14T09:01:56.608Z,144
2022-09-14T09:02:56.578Z,140
2022-09-14T09:03:56.958Z,132
2022-09-14T09:04:56.563Z,124
2022-09-14T09:05:56.580Z,120
2022-09-14T09:06:56.580Z,116
2022-09-14T09:07:56.577Z,124
2022-09-14T09:08:56.653Z,120
2022-09-14T09:09:59.358Z,132
2022-09-14T09:10:56.587Z,140
2022-09-14T09:11:56.589Z,132
2022-09-14T09:12:56.598Z,132
2022-09-14T09:13:56.625Z,152
2022-09-14T09:14:56.588Z,148
2022-09-14T09:15:56.890Z,156
2022-09-14T09:16:56.662Z,152
2022-09-14T09:17:56.715Z,168
2022-09-14T09:18:56.823Z,184
2022-09-14T09:19:56.601Z,208
2022-09-14T09:20:59.412Z,212
2022-09-14T09:21:56.699Z,208
2022-09-14T09:22:56.605Z,192
2022-09-14T09:23:56.727Z,180
2022-09-14T09:24:56.730Z,172
2022-09-14T09:25:59.619Z,172
2022-09-14T09:26:56.613Z,164
2022-09-14T09:27:56.608Z,160
2022-09-14T09:28:56.626Z,160
2022-09-14T09:29:56.639Z,164
2022-09-14T09:30:56.630Z,160
2022-09-14T09:32:00.138Z,152
2022-09-14T09:32:56.620Z,156
2022-09-14T09:33:56.715Z,164
2022-09-14T09:34:56.625Z,164
2022-09-14T09:35:56.615Z,160
2022-09-14T09:36:59.644Z,160
2022-09-14T09:37:56.664Z,168
2022-09-14T09:38:56.725Z,168
2022-09-14T09:39:57.058Z,172
2022-09-14T09:40:56.656Z,160
2022-09-14T09:41:56.634Z,152
2022-09-14T09:42:56.657Z,144
2022-09-14T09:43:56.780Z,132
2022-09-14T09:45:03.526Z,136
2022-09-14T09:45:56.638Z,132
2022-09-14T09:46:57.056Z,120
2022-09-14T09:47:59.761Z,116
2022-09-14T09:48:56.705Z,108
2022-09-14T09:49:56.668Z,100
2022-09-14T09:50:56.645Z,100
2022-09-14T09:51:56.664Z,100
2022-09-14T09:52:56.692Z,108
2022-09-14T09:53:56.751Z,108
2022-09-14T09:54:56.669Z,100
2022-09-14T09:55:56.657Z,92
2022-09-14T09:56:56.778Z,112
2022-09-14T09:57:56.655Z,132
2022-09-14T09:59:00.394Z,152
2022-09-14T09:59:56.669Z,172
2022-09-14T10:00:57.106Z,184
2022-09-14T10:01:56.981Z,172
2022-09-14T10:02:56.698Z,164
2022-09-14T10:03:56.739Z,152
2022-09-14T10:04:56.681Z,148
2022-09-14T10:05:56.873Z,140
2022-09-14T10:06:56.749Z,128
2022-09-14T10:07:56.697Z,124
2022-09-14T10:08:56.739Z,124
2022-09-14T10:09:59.802Z,128
2022-09-14T10:10:56.675Z,132
2022-09-14T10:11:56.678Z,148
2022-09-14T10:12:56.764Z,164
2022-09-14T10:13:56.704Z,164
2022-09-14T10:14:56.806Z,164
2022-09-14T10:15:57.238Z,188
2022-09-14T10:16:56.720Z,216
2022-09-14T10:17:56.721Z,232
2022-09-14T10:18:57.554Z,248
2022-09-14T10:19:56.731Z,264
2022-09-14T10:20:59.571Z,248
2022-09-14T10:21:56.751Z,240
2022-09-14T10:22:56.714Z,236
2022-09-14T10:23:56.742Z,280
2022-09-14T10:24:56.814Z,344
2022-09-14T10:25:59.758Z,372
2022-09-14T10:26:56.710Z,348
2022-09-14T10:27:56.733Z,344
2022-09-14T10:28:57.032Z,412
2022-09-14T10:29:56.728Z,480
2022-09-14T10:30:57.145Z,852
2022-09-14T10:31:59.627Z,896
2022-09-14T10:32:56.739Z,840
2022-09-14T10:33:56.738Z,944
2022-09-14T10:34:56.746Z,920
2022-09-14T10:35:56.739Z,836
2022-09-14T10:36:59.593Z,760
2022-09-14T10:37:56.748Z,696
2022-09-14T10:38:56.815Z,700
2022-09-14T10:39:56.977Z,588
2022-09-14T10:40:56.916Z,544
2022-09-14T10:41:56.764Z,548
2022-09-14T10:42:59.763Z,496
2022-09-14T10:43:56.769Z,556
2022-09-14T10:44:57.073Z,532
2022-09-14T10:45:57.014Z,504
2022-09-14T10:47:00.267Z,472
2022-09-14T10:48:00.149Z,444
2022-09-14T10:48:57.006Z,452
2022-09-14T10:49:59.495Z,464
2022-09-14T10:50:57.622Z,396
2022-09-14T10:52:00.209Z,404
2022-09-14T10:52:57.021Z,428
2022-09-14T10:54:00.219Z,448
2022-09-14T10:54:59.556Z,480
2022-09-14T10:56:06.215Z,508
2022-09-14T10:57:21.512Z,508
2022-09-14T10:58:01.637Z,496
2022-09-14T10:59:00.415Z,492
2022-09-14T10:59:57.287Z,560
2022-09-14T11:00:59.876Z,604
2022-09-14T11:01:58.698Z,532
2022-09-14T11:02:57.199Z,512
2022-09-14T11:03:56.887Z,544
2022-09-14T11:04:59.824Z,572
2022-09-14T11:05:56.804Z,540
2022-09-14T11:06:57.059Z,520
2022-09-14T11:07:56.794Z,492
2022-09-14T11:08:56.819Z,524
2022-09-14T11:10:00.932Z,448
2022-09-14T11:10:56.835Z,464
2022-09-14T11:11:56.813Z,420
2022-09-14T11:12:56.812Z,376
2022-09-14T11:13:56.879Z,308
2022-09-14T11:14:56.806Z,300
2022-09-14T11:15:57.056Z,304
2022-09-14T11:16:56.837Z,268
2022-09-14T11:17:56.817Z,260
2022-09-14T11:18:56.945Z,292
2022-09-14T11:19:56.830Z,304
2022-09-14T11:20:59.890Z,284
2022-09-14T11:21:56.811Z,260
2022-09-14T11:22:56.839Z,248
2022-09-14T11:23:56.831Z,240
2022-09-14T11:24:56.845Z,248
2022-09-14T11:25:56.825Z,276
2022-09-14T11:26:56.909Z,272
2022-09-14T11:27:56.865Z,264
2022-09-14T11:28:57.033Z,276
2022-09-14T11:29:56.822Z,324
2022-09-14T11:30:57.194Z,412
2022-09-14T11:32:26.737Z,420
2022-09-14T11:32:56.904Z,412
2022-09-14T11:33:56.928Z,408
2022-09-14T11:34:56.858Z,440
2022-09-14T11:35:56.858Z,556
2022-09-14T11:36:59.977Z,564
2022-09-14T11:37:56.863Z,520
2022-09-14T11:38:56.845Z,520
2022-09-14T11:39:57.192Z,492
2022-09-14T11:40:56.954Z,508
2022-09-14T11:41:56.859Z,544
2022-09-14T11:42:56.885Z,412
2022-09-14T11:43:56.975Z,396
2022-09-14T11:44:56.857Z,360
2022-09-14T11:45:57.141Z,340
2022-09-14T11:47:02.755Z,332
2022-09-14T11:47:59.758Z,368
2022-09-14T11:48:57.748Z,448
2022-09-14T11:49:56.879Z,476
2022-09-14T11:50:56.885Z,488
2022-09-14T11:51:57.009Z,572
2022-09-14T11:52:59.759Z,912
2022-09-14T11:53:56.888Z,644
2022-09-14T11:54:56.867Z,472
2022-09-14T11:55:56.876Z,412
2022-09-14T11:56:56.897Z,380
2022-09-14T11:57:59.702Z,648
2022-09-14T11:59:00.020Z,384
2022-09-14T11:59:56.762Z,380
2022-09-14T12:00:57.011Z,384
2022-09-14T12:01:57.311Z,416
2022-09-14T12:02:57.361Z,504
2022-09-14T12:04:01.053Z,568
2022-09-14T12:04:57.027Z,860
2022-09-14T12:05:57.013Z,608
2022-09-14T12:06:57.080Z,552
2022-09-14T12:07:57.191Z,460
2022-09-14T12:08:56.946Z,460
2022-09-14T12:09:56.925Z,504
2022-09-14T12:10:56.928Z,692
2022-09-14T12:11:56.927Z,552
2022-09-14T12:12:56.993Z,468
2022-09-14T12:13:57.145Z,428
2022-09-14T12:14:59.944Z,388
2022-09-14T12:15:57.042Z,380
2022-09-14T12:16:56.941Z,372
2022-09-14T12:17:56.986Z,400
2022-09-14T12:18:57.161Z,468
2022-09-14T12:19:56.955Z,528
2022-09-14T12:20:57.043Z,500
2022-09-14T12:21:56.931Z,468
2022-09-14T12:22:57.364Z,412
2022-09-14T12:23:57.320Z,388
2022-09-14T12:24:56.992Z,380
2022-09-14T12:25:59.826Z,372
2022-09-14T12:26:56.958Z,380
2022-09-14T12:27:56.979Z,360
2022-09-14T12:28:57.055Z,340
2022-09-14T12:29:56.942Z,320
2022-09-14T12:30:57.420Z,292
2022-09-14T12:31:56.928Z,272
2022-09-14T12:32:56.976Z,276
2022-09-14T12:33:57.233Z,292
2022-09-14T12:34:56.944Z,308
2022-09-14T12:35:56.941Z,392
2022-09-14T12:37:00.051Z,524
2022-09-14T12:37:56.963Z,628
2022-09-14T12:38:57.001Z,792
2022-09-14T12:39:57.381Z,760
2022-09-14T12:40:56.975Z,664
2022-09-14T12:41:57.002Z,628
2022-09-14T12:42:56.980Z,896
2022-09-14T12:43:57.465Z,916
2022-09-14T12:44:56.983Z,872
2022-09-14T12:45:57.381Z,952
2022-09-14T12:46:57.012Z,948
2022-09-14T12:47:59.990Z,920
2022-09-14T12:48:57.164Z,988
2022-09-14T12:49:56.977Z,1076
2022-09-14T12:50:56.965Z,1108
2022-09-14T12:51:56.976Z,1044
2022-09-14T12:52:57.925Z,1004
2022-09-14T12:53:56.989Z,1168
2022-09-14T12:54:58.336Z,1168
2022-09-14T12:55:57.018Z,1040
2022-09-14T12:56:56.975Z,644
2022-09-14T12:57:57.011Z,584
2022-09-14T12:59:00.212Z,564
2022-09-14T12:59:56.997Z,528
2022-09-14T13:00:57.114Z,464
2022-09-14T13:01:57.775Z,464
2022-09-14T13:02:57.656Z,460
2022-09-14T13:04:00.061Z,452
2022-09-14T13:04:57.014Z,444
2022-09-14T13:05:57.014Z,408
2022-09-14T13:06:57.019Z,364
2022-09-14T13:07:57.043Z,344
2022-09-14T13:08:57.058Z,324
2022-09-14T13:09:59.862Z,328
2022-09-14T13:10:57.031Z,328
2022-09-14T13:11:57.118Z,336
2022-09-14T13:12:57.048Z,388
2022-09-14T13:13:57.093Z,460
2022-09-14T13:15:00.126Z,488
2022-09-14T13:15:57.381Z,484
2022-09-14T13:16:57.080Z,472
2022-09-14T13:17:57.071Z,472
2022-09-14T13:18:57.049Z,464
2022-09-14T13:19:57.035Z,404
2022-09-14T13:20:59.819Z,364
2022-09-14T13:21:57.047Z,328
2022-09-14T13:22:57.055Z,320
2022-09-14T13:23:57.045Z,316
2022-09-14T13:24:57.144Z,308
2022-09-14T13:26:00.190Z,304
2022-09-14T13:26:57.072Z,332
2022-09-14T13:27:57.087Z,348
2022-09-14T13:28:57.496Z,340
2022-09-14T13:29:57.165Z,320
2022-09-14T13:30:57.332Z,284
2022-09-14T13:32:03.240Z,260
2022-09-14T13:32:57.138Z,240
2022-09-14T13:33:57.099Z,212
2022-09-14T13:34:57.087Z,196
2022-09-14T13:35:57.060Z,192
2022-09-14T13:37:00.091Z,192
2022-09-14T13:37:57.112Z,196
2022-09-14T13:38:57.193Z,200
2022-09-14T13:39:57.392Z,212
2022-09-14T13:40:57.239Z,240
2022-09-14T13:41:57.110Z,264
2022-09-14T13:42:57.112Z,284
2022-09-14T13:43:57.140Z,292
2022-09-14T13:44:57.116Z,304
2022-09-14T13:45:57.502Z,312
2022-09-14T13:46:57.072Z,316
2022-09-14T13:47:58.609Z,320
2022-09-14T13:48:57.339Z,320
2022-09-14T13:49:57.096Z,324
2022-09-14T13:50:57.130Z,316
2022-09-14T13:51:57.120Z,300
2022-09-14T13:53:09.372Z,276
2022-09-14T13:53:57.218Z,252
2022-09-14T13:54:57.110Z,228
2022-09-14T13:55:57.122Z,216
2022-09-14T13:56:57.218Z,208
2022-09-14T13:57:57.097Z,196
2022-09-14T13:58:57.336Z,180
2022-09-14T13:59:57.171Z,164
2022-09-14T14:00:57.471Z,148
2022-09-14T14:01:58.250Z,132
2022-09-14T14:02:57.589Z,112
2022-09-14T14:04:00.367Z,96
2022-09-14T14:04:57.182Z,84
2022-09-14T14:05:57.133Z,72
2022-09-14T14:06:57.238Z,60
2022-09-14T14:07:57.149Z,60
2022-09-14T14:08:57.165Z,68
2022-09-14T14:09:57.154Z,72
2022-09-14T14:10:57.142Z,60
2022-09-14T14:11:57.126Z,48
2022-09-14T14:12:58.018Z,40
2022-09-14T14:13:57.399Z,28
2022-09-14T14:15:00.581Z,24